Time;durP1;ratioP1;P1;durP2;ratioP2;P2;SDS_P1;SDS_P2;PMS_P1;PMS_P2;Temp;Humidity;BMP_temperature;BMP_pressure;BME280_temperature;BME280_humidity;BME280_pressure;Samples;Min_cycle;Max_cycle;Signal;HPM_P1;HPM_P2
2022/03/18 00:02:13;;;;;;;;;;;23.70;99.90;;;;;;5072542;28;20359;-71
2022/03/18 00:04:40;;;;;;;;;;;23.80;99.90;;;;;;5072747;28;19912;-71
2022/03/18 00:07:07;;;;;;;;;;;23.90;99.90;;;;;;5072371;28;19915;-71
2022/03/18 00:09:33;;;;;;;;;;;23.90;99.90;;;;;;5072355;28;19908;-71
2022/03/18 00:12:00;;;;;;;;;;;24.00;99.90;;;;;;5072331;28;19985;-71
2022/03/18 00:14:27;;;;;;;;;;;24.10;99.90;;;;;;5071971;28;19996;-71
2022/03/18 00:16:54;;;;;;;;;;;24.10;99.90;;;;;;5072323;28;19920;-71
2022/03/18 00:19:20;;;;;;;;;;;24.20;99.90;;;;;;5072163;28;19920;-69
2022/03/18 00:21:47;;;;;;;;;;;24.20;99.90;;;;;;5072357;28;19908;-71
2022/03/18 00:24:14;;;;;;;;;;;24.30;99.90;;;;;;5072204;28;19908;-71
2022/03/18 00:26:40;;;;;;;;;;;24.30;99.90;;;;;;5072095;28;19908;-69
2022/03/18 00:29:07;;;;;;;;;;;24.30;99.90;;;;;;5072231;28;20359;-71
2022/03/18 00:31:33;;;;;;;;;;;24.40;99.90;;;;;;5072254;28;19935;-71
2022/03/18 00:34:01;;;;;;;;;;;24.40;99.90;;;;;;5072187;28;19923;-72
2022/03/18 00:36:28;;;;;;;;;;;24.40;99.90;;;;;;5071902;28;19912;-72
2022/03/18 00:38:55;;;;;;;;;;;24.50;99.90;;;;;;5071848;28;19924;-72
2022/03/18 00:41:21;;;;;;;;;;;24.50;99.90;;;;;;5054180;28;19916;-72
2022/03/18 00:43:50;;;;;;;;;;;24.40;99.90;;;;;;5072239;28;19915;-71
2022/03/18 00:46:20;;;;;;;;;;;24.40;99.90;;;;;;5071921;28;20302;-72
2022/03/18 00:54:16;;;;;;;;;;;24.50;99.90;;;;;;5072268;28;19916;-71
2022/03/18 00:56:43;;;;;;;;;;;24.60;99.90;;;;;;5071952;28;19919;-72
2022/03/18 00:59:10;;;;;;;;;;;24.70;99.90;;;;;;5071886;28;20343;-72
2022/03/18 01:01:36;;;;;;;;;;;24.60;99.90;;;;;;5071946;28;19995;-72
2022/03/18 01:04:04;;;;;;;;;;;24.60;99.90;;;;;;5071543;28;20362;-71
2022/03/18 01:06:37;;;;;;;;;;;24.80;99.90;;;;;;5071707;28;19913;-72
2022/03/18 01:09:04;;;;;;;;;;;25.00;99.90;;;;;;5071740;28;19908;-70
2022/03/18 01:11:31;;;;;;;;;;;25.20;99.90;;;;;;5071455;28;19991;-72
2022/03/18 01:13:58;;;;;;;;;;;25.20;99.90;;;;;;5072007;28;19976;-72
2022/03/18 01:16:25;;;;;;;;;;;25.40;99.90;;;;;;5071575;28;19909;-72
2022/03/18 01:18:51;;;;;;;;;;;25.70;99.90;;;;;;5071651;28;20371;-72
2022/03/18 01:21:18;;;;;;;;;;;26.50;99.90;;;;;;5074651;28;19915;-70
2022/03/18 01:23:45;;;;;;;;;;;26.90;99.90;;;;;;5057570;28;19915;-72
2022/03/18 01:26:11;;;;;;;;;;;27.20;99.90;;;;;;5075155;28;19908;-71
2022/03/18 01:28:38;;;;;;;;;;;27.10;99.90;;;;;;5075196;28;19915;-70
2022/03/18 01:31:05;;;;;;;;;;;27.20;99.90;;;;;;5075112;28;19908;-70
2022/03/18 01:33:33;;;;;;;;;;;27.60;99.90;;;;;;5075318;28;19912;-70
2022/03/18 01:36:00;;;;;;;;;;;28.00;99.90;;;;;;5075378;28;19909;-70
2022/03/18 01:38:27;;;;;;;;;;;28.00;99.90;;;;;;5074740;28;19916;-71
2022/03/18 01:40:54;;;;;;;;;;;27.80;99.90;;;;;;5075030;28;19919;-70
2022/03/18 01:43:20;;;;;;;;;;;27.80;99.90;;;;;;5075006;28;19908;-71
2022/03/18 01:45:49;;;;;;;;;;;27.40;99.90;;;;;;5075085;28;19909;-71
2022/03/18 01:48:15;;;;;;;;;;;26.90;99.90;;;;;;5074801;28;19990;-71
2022/03/18 01:50:42;;;;;;;;;;;26.50;99.90;;;;;;5074760;28;19920;-71
2022/03/18 01:53:10;;;;;;;;;;;26.20;99.90;;;;;;5074861;28;20007;-71
2022/03/18 01:55:37;;;;;;;;;;;25.90;99.90;;;;;;5074423;28;19909;-72
2022/03/18 01:58:04;;;;;;;;;;;25.70;99.90;;;;;;5074534;28;20304;-71
2022/03/18 02:00:31;;;;;;;;;;;25.60;99.90;;;;;;5074615;28;19909;-70
2022/03/18 02:02:57;;;;;;;;;;;25.50;99.90;;;;;;5074602;28;20260;-72
2022/03/18 02:05:25;;;;;;;;;;;25.40;99.90;;;;;;5074275;28;20262;-71
2022/03/18 02:07:51;;;;;;;;;;;25.30;99.90;;;;;;5074530;28;19908;-71
2022/03/18 02:10:18;;;;;;;;;;;25.20;99.90;;;;;;5074185;28;19999;-71
2022/03/18 02:12:46;;;;;;;;;;;25.30;99.90;;;;;;5074010;28;20386;-71
2022/03/18 02:15:13;;;;;;;;;;;25.40;99.90;;;;;;5074186;28;20439;-70
2022/03/18 02:17:40;;;;;;;;;;;25.60;99.90;;;;;;5074069;28;19928;-71
2022/03/18 02:20:06;;;;;;;;;;;25.70;99.90;;;;;;5074064;28;20416;-70
2022/03/18 02:22:38;;;;;;;;;;;25.80;99.90;;;;;;5074412;28;20266;-70
2022/03/18 02:25:05;;;;;;;;;;;25.90;99.90;;;;;;5074221;28;19908;-70
2022/03/18 02:27:31;;;;;;;;;;;26.00;99.90;;;;;;5074054;28;19908;-70
2022/03/18 02:29:58;;;;;;;;;;;26.00;99.90;;;;;;5074008;28;20377;-69
2022/03/18 02:32:25;;;;;;;;;;;25.90;99.90;;;;;;5073422;28;20279;-70
2022/03/18 02:34:52;;;;;;;;;;;25.90;99.90;;;;;;5073868;28;19919;-70
2022/03/18 02:37:18;;;;;;;;;;;25.70;99.90;;;;;;5073861;28;20305;-70
2022/03/18 02:39:45;;;;;;;;;;;25.70;99.90;;;;;;5073855;28;19913;-69
2022/03/18 02:42:11;;;;;;;;;;;25.80;99.90;;;;;;5073656;28;19908;-69
2022/03/18 02:44:38;;;;;;;;;;;25.80;99.90;;;;;;5073969;28;19908;-69
2022/03/18 02:47:05;;;;;;;;;;;26.00;99.90;;;;;;5073711;28;19908;-71
2022/03/18 02:49:32;;;;;;;;;;;25.90;99.90;;;;;;5073369;28;19912;-71
2022/03/18 02:51:59;;;;;;;;;;;25.90;99.90;;;;;;5073547;28;19908;-70
2022/03/18 02:54:26;;;;;;;;;;;26.00;99.90;;;;;;5073402;28;19931;-70
2022/03/18 02:56:52;;;;;;;;;;;25.90;99.90;;;;;;5073646;28;19909;-69
2022/03/18 02:59:20;;;;;;;;;;;25.90;99.90;;;;;;5073588;28;19916;-70
2022/03/18 03:01:47;;;;;;;;;;;25.80;99.90;;;;;;5073332;28;19915;-70
2022/03/18 03:04:14;;;;;;;;;;;25.90;99.90;;;;;;5073235;28;20290;-70
2022/03/18 03:09:26;;;;;;;;;;;26.00;99.90;;;;;;5073638;28;19979;-69
2022/03/18 03:11:53;;;;;;;;;;;25.90;99.90;;;;;;5073206;28;19912;-69
2022/03/18 03:14:19;;;;;;;;;;;25.90;99.90;;;;;;5073224;28;20051;-70
2022/03/18 03:16:46;;;;;;;;;;;25.70;99.90;;;;;;5072922;28;19916;-70
2022/03/18 03:19:14;;;;;;;;;;;25.70;99.90;;;;;;5072797;28;19961;-70
2022/03/18 03:21:40;;;;;;;;;;;25.70;99.90;;;;;;5072955;28;19951;-69
2022/03/18 03:24:08;;;;;;;;;;;25.70;99.90;;;;;;5072854;28;19955;-70
2022/03/18 03:26:35;;;;;;;;;;;25.70;99.90;;;;;;5073010;28;20394;-70
2022/03/18 03:29:02;;;;;;;;;;;25.80;99.90;;;;;;5073138;28;19935;-69
2022/03/18 03:31:28;;;;;;;;;;;25.90;99.90;;;;;;5073047;28;20035;-70
2022/03/18 03:33:55;;;;;;;;;;;25.80;99.90;;;;;;5072706;28;20420;-69
2022/03/18 03:36:23;;;;;;;;;;;26.00;99.90;;;;;;5072885;28;19966;-70
2022/03/18 03:38:50;;;;;;;;;;;26.10;99.90;;;;;;5073054;28;20110;-70
2022/03/18 03:41:20;;;;;;;;;;;26.00;99.90;;;;;;5072848;28;19908;-69
2022/03/18 03:43:50;;;;;;;;;;;26.00;99.90;;;;;;5072239;28;20305;-69
2022/03/18 03:46:17;;;;;;;;;;;26.10;99.90;;;;;;5072685;28;20328;-70
2022/03/18 03:48:44;;;;;;;;;;;26.00;99.90;;;;;;5072711;28;19908;-70
2022/03/18 03:51:10;;;;;;;;;;;26.00;99.90;;;;;;5072768;28;19908;-70
2022/03/18 03:53:37;;;;;;;;;;;26.00;99.90;;;;;;5072626;28;19952;-69
2022/03/18 03:56:04;;;;;;;;;;;25.90;99.90;;;;;;5072407;28;20286;-69
2022/03/18 03:58:30;;;;;;;;;;;25.90;99.90;;;;;;5072511;28;20015;-69
2022/03/18 04:00:57;;;;;;;;;;;25.70;99.90;;;;;;5072548;28;20282;-70
2022/03/18 04:03:24;;;;;;;;;;;25.70;99.90;;;;;;5072586;28;19913;-70
2022/03/18 04:05:50;;;;;;;;;;;25.80;99.90;;;;;;5072087;28;19909;-69
2022/03/18 04:08:17;;;;;;;;;;;25.80;99.90;;;;;;5072364;28;20339;-70
2022/03/18 04:10:43;;;;;;;;;;;25.90;99.90;;;;;;5064097;28;19915;-69
2022/03/18 04:13:10;;;;;;;;;;;25.80;99.90;;;;;;5072098;28;20256;-69
2022/03/18 04:15:38;;;;;;;;;;;25.80;99.90;;;;;;5072289;28;19931;-69
2022/03/18 04:18:04;;;;;;;;;;;25.90;99.90;;;;;;5071784;28;19920;-69
2022/03/18 04:20:33;;;;;;;;;;;25.70;99.90;;;;;;5072165;28;19917;-70
2022/03/18 04:23:00;;;;;;;;;;;25.80;99.90;;;;;;5072683;28;19908;-70
2022/03/18 04:25:27;;;;;;;;;;;25.90;99.90;;;;;;5072311;28;19979;-70
2022/03/18 04:27:53;;;;;;;;;;;25.80;99.90;;;;;;5072443;28;20274;-70
2022/03/18 04:30:20;;;;;;;;;;;25.70;99.90;;;;;;5072148;28;19944;-70
2022/03/18 04:32:47;;;;;;;;;;;25.70;99.90;;;;;;5072708;28;19909;-71
2022/03/18 04:35:13;;;;;;;;;;;25.90;99.90;;;;;;5072110;28;19999;-72
2022/03/18 04:37:40;;;;;;;;;;;25.80;99.90;;;;;;5072308;28;19954;-71
2022/03/18 04:40:11;;;;;;;;;;;25.90;99.90;;;;;;5072058;28;20359;-71
2022/03/18 04:42:38;;;;;;;;;;;25.90;99.90;;;;;;5072344;28;19916;-71
2022/03/18 04:45:05;;;;;;;;;;;25.90;99.90;;;;;;5072605;28;19916;-72
2022/03/18 04:47:33;;;;;;;;;;;26.00;99.90;;;;;;5072920;28;19956;-70
2022/03/18 04:50:00;;;;;;;;;;;25.80;99.90;;;;;;5072483;28;19949;-71
2022/03/18 04:52:27;;;;;;;;;;;25.80;99.90;;;;;;5076704;28;19912;-71
2022/03/18 04:54:53;;;;;;;;;;;25.80;99.90;;;;;;5082621;28;19963;-71
2022/03/18 04:57:20;;;;;;;;;;;25.70;99.90;;;;;;5083996;28;19916;-71
2022/03/18 04:59:48;;;;;;;;;;;25.60;99.90;;;;;;5085001;28;19921;-71
2022/03/18 05:02:15;;;;;;;;;;;25.50;99.90;;;;;;5084043;28;20003;-71
2022/03/18 05:04:44;;;;;;;;;;;25.50;99.90;;;;;;5083127;28;19912;-72
2022/03/18 05:07:14;;;;;;;;;;;25.40;99.90;;;;;;5084927;28;19909;-70
2022/03/18 05:09:41;;;;;;;;;;;25.50;99.90;;;;;;5084222;28;19954;-71
2022/03/18 05:12:09;;;;;;;;;;;25.40;99.90;;;;;;5083398;28;19915;-71
2022/03/18 05:14:37;;;;;;;;;;;25.50;99.90;;;;;;5084189;28;19912;-71
2022/03/18 05:17:03;;;;;;;;;;;25.50;99.90;;;;;;5082609;28;19928;-71
2022/03/18 05:19:30;;;;;;;;;;;25.50;99.90;;;;;;5077844;28;19924;-70
2022/03/18 05:21:57;;;;;;;;;;;25.50;99.90;;;;;;5075924;28;19916;-70
2022/03/18 05:24:26;;;;;;;;;;;25.40;99.90;;;;;;5075238;28;20426;-70
2022/03/18 05:26:53;;;;;;;;;;;25.30;99.90;;;;;;5075506;28;19923;-70
2022/03/18 05:29:20;;;;;;;;;;;25.20;99.90;;;;;;5075267;28;19916;-70
2022/03/18 05:31:47;;;;;;;;;;;25.20;99.90;;;;;;5075213;28;19909;-69
2022/03/18 05:34:14;;;;;;;;;;;25.10;99.90;;;;;;5075277;28;19908;-71
2022/03/18 05:36:41;;;;;;;;;;;25.10;99.90;;;;;;5075054;28;20006;-70
2022/03/18 05:39:08;;;;;;;;;;;25.20;99.90;;;;;;5075147;28;19917;-70
2022/03/18 05:41:35;;;;;;;;;;;25.20;99.90;;;;;;5075567;28;19938;-70
2022/03/18 05:44:02;;;;;;;;;;;25.20;99.90;;;;;;5075183;28;20031;-70
2022/03/18 05:46:28;;;;;;;;;;;25.20;99.90;;;;;;5075074;28;19912;-69
2022/03/18 05:48:55;;;;;;;;;;;25.20;99.90;;;;;;5074768;28;19947;-70
2022/03/18 05:51:22;;;;;;;;;;;25.10;99.90;;;;;;5073334;28;19909;-70
2022/03/18 05:53:48;;;;;;;;;;;25.10;99.90;;;;;;5072882;28;19916;-70
2022/03/18 05:59:00;;;;;;;;;;;25.10;99.90;;;;;;5072816;28;20055;-71
2022/03/18 06:01:27;;;;;;;;;;;25.10;99.90;;;;;;5072811;28;20366;-71
2022/03/18 06:03:53;;;;;;;;;;;25.10;99.90;;;;;;5072213;28;20286;-71
2022/03/18 06:06:20;;;;;;;;;;;25.10;99.90;;;;;;5071451;28;19959;-70
2022/03/18 06:11:49;;;;;;;;;;;25.00;99.90;;;;;;5072949;28;19915;-70
2022/03/18 06:14:18;;;;;;;;;;;25.00;99.90;;;;;;5072269;28;19915;-69
2022/03/18 06:16:47;;;;;;;;;;;24.90;99.90;;;;;;5071947;28;19927;-70
2022/03/18 06:19:14;;;;;;;;;;;24.90;99.90;;;;;;5071615;28;19917;-69
2022/03/18 06:21:41;;;;;;;;;;;24.90;99.90;;;;;;5072386;28;19912;-69
2022/03/18 06:24:09;;;;;;;;;;;24.90;99.90;;;;;;5071783;28;19955;-68
2022/03/18 06:26:36;;;;;;;;;;;24.80;99.90;;;;;;5072311;28;19943;-68
2022/03/18 06:29:03;;;;;;;;;;;24.90;99.90;;;;;;5071780;28;19978;-69
2022/03/18 06:31:30;;;;;;;;;;;25.00;99.90;;;;;;5071750;28;19912;-70
2022/03/18 06:33:56;;;;;;;;;;;25.00;99.90;;;;;;5072031;28;20026;-70
2022/03/18 06:36:23;;;;;;;;;;;24.90;99.90;;;;;;5071928;28;20549;-71
2022/03/18 06:38:50;;;;;;;;;;;24.90;99.90;;;;;;5071584;28;19920;-70
2022/03/18 06:41:19;;;;;;;;;;;24.80;99.90;;;;;;5070345;28;19943;-70
2022/03/18 06:43:51;;;;;;;;;;;24.70;99.90;;;;;;5071071;28;19909;-69
2022/03/18 06:46:18;;;;;;;;;;;24.70;99.90;;;;;;5071487;28;19915;-71
2022/03/18 06:48:45;;;;;;;;;;;24.60;99.90;;;;;;5071382;28;20287;-69
2022/03/18 06:51:12;;;;;;;;;;;24.60;99.90;;;;;;5071520;28;19973;-69
2022/03/18 06:53:39;;;;;;;;;;;24.50;99.90;;;;;;5053527;28;19943;-71
2022/03/18 06:56:06;;;;;;;;;;;24.50;99.90;;;;;;5070896;28;19920;-70
2022/03/18 06:58:33;;;;;;;;;;;24.50;99.90;;;;;;5071038;28;20355;-71
2022/03/18 07:00:59;;;;;;;;;;;24.50;99.90;;;;;;5071431;28;19909;-70
2022/03/18 07:03:26;;;;;;;;;;;24.50;99.90;;;;;;5071278;28;19939;-70
2022/03/18 07:05:54;;;;;;;;;;;24.40;99.90;;;;;;5071314;28;20339;-70
2022/03/18 07:08:20;;;;;;;;;;;24.40;99.90;;;;;;5070944;28;19909;-70
2022/03/18 07:10:47;;;;;;;;;;;24.30;99.90;;;;;;5070781;28;19909;-70
2022/03/18 07:13:15;;;;;;;;;;;24.30;99.90;;;;;;5071292;28;20004;-71
2022/03/18 07:15:42;;;;;;;;;;;24.30;99.90;;;;;;5071064;28;20704;-71
2022/03/18 07:18:08;;;;;;;;;;;24.30;99.90;;;;;;5069415;28;19920;-71
2022/03/18 07:20:39;;;;;;;;;;;24.20;99.90;;;;;;5071153;28;19908;-71
2022/03/18 07:23:07;;;;;;;;;;;24.20;99.90;;;;;;5070506;28;19954;-71
2022/03/18 07:25:39;;;;;;;;;;;24.20;99.90;;;;;;5070891;28;19916;-69
2022/03/18 07:28:09;;;;;;;;;;;24.20;99.90;;;;;;5070808;28;19908;-70
2022/03/18 07:30:40;;;;;;;;;;;24.20;99.90;;;;;;5071039;28;19920;-70
2022/03/18 07:33:07;;;;;;;;;;;24.10;99.90;;;;;;5070876;28;19923;-71
2022/03/18 07:35:34;;;;;;;;;;;24.10;99.90;;;;;;5070290;28;19974;-70
2022/03/18 07:38:02;;;;;;;;;;;24.10;99.90;;;;;;5070737;28;19939;-70
2022/03/18 07:40:29;;;;;;;;;;;24.10;99.90;;;;;;5070398;28;19912;-70
2022/03/18 07:42:57;;;;;;;;;;;24.00;99.90;;;;;;5070814;28;19908;-70
2022/03/18 07:45:28;;;;;;;;;;;24.00;99.90;;;;;;5070489;28;19912;-70
2022/03/18 07:47:55;;;;;;;;;;;23.90;99.90;;;;;;5070623;28;20286;-70
2022/03/18 07:50:24;;;;;;;;;;;23.90;99.90;;;;;;5070132;28;19916;-70
2022/03/18 07:52:52;;;;;;;;;;;23.80;99.90;;;;;;5070588;28;20445;-70
2022/03/18 07:55:19;;;;;;;;;;;23.70;99.90;;;;;;5052751;28;19912;-71
2022/03/18 07:57:46;;;;;;;;;;;23.70;99.90;;;;;;5070525;28;20006;-70
2022/03/18 08:00:13;;;;;;;;;;;23.70;99.90;;;;;;5070235;28;19954;-70
2022/03/18 08:02:40;;;;;;;;;;;23.80;99.90;;;;;;5069989;28;19920;-71
2022/03/18 08:05:07;;;;;;;;;;;23.80;99.90;;;;;;5070903;28;20373;-70
2022/03/18 08:07:34;;;;;;;;;;;23.80;99.90;;;;;;5072393;28;19923;-70
2022/03/18 08:10:01;;;;;;;;;;;23.70;99.90;;;;;;5055892;28;20636;-70
2022/03/18 08:12:30;;;;;;;;;;;23.70;99.90;;;;;;5052357;28;19952;-69
2022/03/18 08:15:01;;;;;;;;;;;23.70;99.90;;;;;;5052422;28;20375;-70
2022/03/18 08:17:28;;;;;;;;;;;23.60;99.90;;;;;;5051243;28;19924;-70
2022/03/18 08:19:54;;;;;;;;;;;23.70;99.90;;;;;;5052339;28;19921;-70
2022/03/18 08:22:21;;;;;;;;;;;23.60;99.90;;;;;;5052190;28;19916;-69
2022/03/18 08:24:48;;;;;;;;;;;23.70;99.90;;;;;;5052185;28;20003;-70
2022/03/18 08:27:15;;;;;;;;;;;23.70;99.90;;;;;;5052292;28;19908;-71
2022/03/18 08:29:43;;;;;;;;;;;23.70;99.90;;;;;;5054717;28;19913;-70
2022/03/18 08:32:13;;;;;;;;;;;23.70;99.90;;;;;;5056046;28;19916;-71
2022/03/18 08:34:40;;;;;;;;;;;23.70;99.90;;;;;;5056364;28;19909;-70
2022/03/18 08:37:08;;;;;;;;;;;23.60;99.90;;;;;;5056152;28;19909;-71
2022/03/18 08:39:36;;;;;;;;;;;23.70;99.90;;;;;;5056061;28;20282;-70
2022/03/18 08:42:05;;;;;;;;;;;23.70;99.90;;;;;;5055992;28;20212;-70
2022/03/18 08:44:32;;;;;;;;;;;23.70;99.90;;;;;;5056039;28;19909;-70
2022/03/18 08:46:58;;;;;;;;;;;23.60;99.90;;;;;;5056008;28;19916;-70
2022/03/18 08:49:25;;;;;;;;;;;23.70;99.90;;;;;;5055853;28;19991;-70
2022/03/18 08:51:52;;;;;;;;;;;23.70;99.90;;;;;;5055988;28;20375;-70
2022/03/18 08:54:21;;;;;;;;;;;23.60;99.90;;;;;;5055594;28;19909;-70
2022/03/18 08:56:48;;;;;;;;;;;23.60;99.90;;;;;;5056019;28;19916;-70
2022/03/18 08:59:15;;;;;;;;;;;23.60;99.90;;;;;;5055968;28;19917;-70
2022/03/18 09:01:42;;;;;;;;;;;23.60;99.90;;;;;;5055900;28;19909;-70
2022/03/18 09:04:09;;;;;;;;;;;23.60;99.90;;;;;;5055477;28;19916;-70
2022/03/18 09:06:35;;;;;;;;;;;23.50;99.90;;;;;;5055673;28;20363;-70
2022/03/18 09:09:04;;;;;;;;;;;23.40;99.90;;;;;;5055618;28;19919;-70
2022/03/18 09:11:31;;;;;;;;;;;23.40;99.90;;;;;;5055362;28;20274;-70
2022/03/18 09:13:58;;;;;;;;;;;23.40;99.90;;;;;;5054861;28;19916;-70
2022/03/18 09:16:24;;;;;;;;;;;23.40;99.90;;;;;;5055177;28;20027;-70
2022/03/18 09:18:51;;;;;;;;;;;23.40;99.90;;;;;;5055465;28;19917;-70
2022/03/18 09:21:18;;;;;;;;;;;23.30;99.90;;;;;;5055271;28;19909;-69
2022/03/18 09:23:44;;;;;;;;;;;23.40;99.90;;;;;;5055565;28;20008;-71
2022/03/18 09:26:11;;;;;;;;;;;23.40;99.90;;;;;;5047045;28;19909;-71
2022/03/18 09:28:39;;;;;;;;;;;23.40;99.90;;;;;;5054659;28;20266;-70
2022/03/18 09:31:05;;;;;;;;;;;23.30;99.90;;;;;;5054984;28;19909;-71
2022/03/18 09:33:32;;;;;;;;;;;23.30;99.90;;;;;;5054847;28;20574;-70
2022/03/18 09:35:59;;;;;;;;;;;23.30;99.90;;;;;;5055405;28;19909;-71
2022/03/18 09:38:25;;;;;;;;;;;23.30;99.90;;;;;;5054862;28;19932;-71
2022/03/18 09:40:52;;;;;;;;;;;23.30;99.90;;;;;;5054217;28;19919;-70
2022/03/18 09:43:19;;;;;;;;;;;23.30;99.90;;;;;;5054436;28;19938;-70
2022/03/18 09:45:46;;;;;;;;;;;23.30;99.90;;;;;;5055028;28;19909;-70
2022/03/18 09:48:12;;;;;;;;;;;23.30;99.90;;;;;;5054609;28;19912;-70
2022/03/18 09:50:40;;;;;;;;;;;23.40;99.90;;;;;;5054890;28;19909;-71
2022/03/18 09:53:07;;;;;;;;;;;23.30;99.90;;;;;;5054626;28;19955;-71
2022/03/18 09:55:35;;;;;;;;;;;23.40;99.90;;;;;;5054564;28;19909;-71
2022/03/18 09:58:02;;;;;;;;;;;23.30;99.90;;;;;;5053892;28;19921;-71
2022/03/18 10:00:29;;;;;;;;;;;23.30;99.90;;;;;;5055035;28;19947;-71
2022/03/18 10:03:08;;;;;;;;;;;23.40;99.90;;;;;;5054636;28;20311;-68
2022/03/18 10:05:35;;;;;;;;;;;23.40;99.90;;;;;;5052749;28;19939;-71
2022/03/18 10:08:02;;;;;;;;;;;23.30;99.90;;;;;;5054456;28;19912;-71
2022/03/18 10:10:29;;;;;;;;;;;23.40;99.90;;;;;;5054849;28;19908;-71
2022/03/18 10:13:01;;;;;;;;;;;23.40;99.90;;;;;;5054535;28;19909;-71
2022/03/18 10:15:28;;;;;;;;;;;23.40;99.90;;;;;;5054553;28;19916;-71
2022/03/18 10:17:56;;;;;;;;;;;23.20;99.90;;;;;;5054148;28;19927;-72
2022/03/18 10:20:23;;;;;;;;;;;22.60;99.90;;;;;;5054011;28;19928;-73
2022/03/18 10:22:50;;;;;;;;;;;22.10;99.90;;;;;;5054147;28;19912;-74
2022/03/18 10:25:33;;;;;;;;;;;21.80;99.90;;;;;;5054269;28;19909;-72
2022/03/18 10:27:59;;;;;;;;;;;21.70;99.90;;;;;;5054135;28;20377;-73
2022/03/18 10:30:27;;;;;;;;;;;21.70;99.90;;;;;;5053494;28;20406;-72
2022/03/18 10:32:53;;;;;;;;;;;21.30;99.90;;;;;;5053915;28;19995;-70
2022/03/18 10:38:34;;;;;;;;;;;20.60;99.90;;;;;;5053662;28;19970;-70
2022/03/18 10:41:05;;;;;;;;;;;20.50;99.90;;;;;;5053748;28;20359;-72
2022/03/18 10:43:49;;;;;;;;;;;20.50;99.90;;;;;;5053960;28;20000;-72
2022/03/18 10:46:16;;;;;;;;;;;20.60;99.90;;;;;;5053635;28;19989;-70
2022/03/18 10:49:01;;;;;;;;;;;20.50;99.90;;;;;;5054012;28;19912;-70
2022/03/18 10:51:28;;;;;;;;;;;20.50;99.90;;;;;;5053299;28;20003;-72
2022/03/18 10:53:55;;;;;;;;;;;20.60;99.90;;;;;;5053731;28;19913;-72
2022/03/18 10:56:22;;;;;;;;;;;20.70;99.90;;;;;;5053181;28;19909;-72
2022/03/18 10:58:48;;;;;;;;;;;20.70;99.90;;;;;;5053505;28;20376;-72
2022/03/18 11:01:15;;;;;;;;;;;20.80;99.90;;;;;;5053312;28;19916;-72
2022/03/18 11:03:45;;;;;;;;;;;20.90;99.90;;;;;;5053438;28;19920;-73
2022/03/18 11:06:12;;;;;;;;;;;20.80;99.90;;;;;;5053047;28;19909;-70
2022/03/18 11:08:42;;;;;;;;;;;20.90;99.90;;;;;;5053627;28;19909;-70
2022/03/18 11:11:21;;;;;;;;;;;20.80;99.90;;;;;;5053649;28;19909;-70
2022/03/18 11:13:53;;;;;;;;;;;20.90;99.90;;;;;;5053450;28;20243;-72
2022/03/18 11:16:21;;;;;;;;;;;21.00;99.90;;;;;;5052617;28;20377;-73
2022/03/18 11:18:49;;;;;;;;;;;21.20;99.90;;;;;;5053148;28;19923;-72
2022/03/18 11:21:16;;;;;;;;;;;21.10;99.90;;;;;;5053004;28;20252;-72
2022/03/18 11:23:45;;;;;;;;;;;21.20;99.90;;;;;;5052931;28;20423;-70
2022/03/18 11:26:16;;;;;;;;;;;21.30;99.90;;;;;;5053143;28;20355;-72
2022/03/18 11:28:43;;;;;;;;;;;21.10;99.90;;;;;;5053076;28;20318;-73
2022/03/18 11:31:11;;;;;;;;;;;21.10;99.90;;;;;;5052460;28;19958;-72
2022/03/18 11:33:38;;;;;;;;;;;21.20;99.90;;;;;;5052750;28;19931;-73
2022/03/18 11:36:06;;;;;;;;;;;21.20;99.90;;;;;;5052554;28;19909;-72
2022/03/18 11:38:53;;;;;;;;;;;21.30;99.90;;;;;;5052599;28;19921;-72
2022/03/18 11:41:20;;;;;;;;;;;21.20;99.90;;;;;;5052624;28;19940;-73
2022/03/18 11:43:46;;;;;;;;;;;21.10;99.90;;;;;;5052903;28;19909;-72
2022/03/18 11:46:16;;;;;;;;;;;21.10;99.90;;;;;;5052306;28;19913;-72
2022/03/18 11:48:47;;;;;;;;;;;21.20;99.90;;;;;;5052968;28;20050;-72
2022/03/18 11:51:26;;;;;;;;;;;21.10;99.90;;;;;;5052625;28;20389;-72
2022/03/18 11:53:54;;;;;;;;;;;21.10;99.90;;;;;;5052646;28;19912;-72
2022/03/18 11:56:22;;;;;;;;;;;21.10;99.90;;;;;;5052292;28;19909;-72
2022/03/18 11:58:49;;;;;;;;;;;21.10;99.90;;;;;;5052939;28;19917;-72
2022/03/18 12:01:34;;;;;;;;;;;21.10;99.90;;;;;;5052481;28;19916;-72
2022/03/18 12:04:04;;;;;;;;;;;21.10;99.90;;;;;;5052097;28;20270;-73
2022/03/18 12:06:31;;;;;;;;;;;21.00;99.90;;;;;;5052670;28;20458;-72
2022/03/18 12:08:59;;;;;;;;;;;21.00;99.90;;;;;;5052544;28;19909;-72
2022/03/18 12:11:29;;;;;;;;;;;20.90;99.90;;;;;;5052658;28;20411;-72
2022/03/18 12:13:56;;;;;;;;;;;20.80;99.90;;;;;;5052476;28;20420;-72
2022/03/18 12:16:23;;;;;;;;;;;20.80;99.90;;;;;;5052112;28;19916;-70
2022/03/18 12:18:58;;;;;;;;;;;20.80;99.90;;;;;;5052111;28;19964;-72
2022/03/18 12:21:34;;;;;;;;;;;20.80;99.90;;;;;;5052478;28;19909;-72
2022/03/18 12:24:05;;;;;;;;;;;20.70;99.90;;;;;;5052089;28;20318;-72
2022/03/18 12:26:32;;;;;;;;;;;20.80;99.90;;;;;;5052126;28;19999;-72
2022/03/18 12:28:58;;;;;;;;;;;20.70;99.90;;;;;;5052211;28;19962;-73
2022/03/18 12:31:25;;;;;;;;;;;20.70;99.90;;;;;;5052351;28;19963;-72
2022/03/18 12:33:58;;;;;;;;;;;20.70;99.90;;;;;;5052384;28;19913;-72
2022/03/18 12:36:26;;;;;;;;;;;20.70;99.90;;;;;;5051939;28;19936;-72
2022/03/18 12:39:04;;;;;;;;;;;20.70;99.90;;;;;;5052146;28;20342;-72
2022/03/18 12:41:31;;;;;;;;;;;20.70;99.90;;;;;;5052095;28;19916;-72
2022/03/18 12:43:58;;;;;;;;;;;20.80;99.90;;;;;;5052182;28;20407;-72
2022/03/18 12:46:24;;;;;;;;;;;20.80;99.90;;;;;;5051629;28;19978;-72
2022/03/18 12:48:51;;;;;;;;;;;20.90;99.90;;;;;;5052103;28;20685;-72
2022/03/18 12:51:17;;;;;;;;;;;21.00;99.90;;;;;;5052173;28;19909;-72
2022/03/18 12:53:46;;;;;;;;;;;21.00;99.90;;;;;;5052116;28;19909;-72
2022/03/18 12:56:17;;;;;;;;;;;21.00;99.90;;;;;;5051937;28;20264;-72
2022/03/18 12:58:45;;;;;;;;;;;21.10;99.90;;;;;;5051479;28;19921;-72
2022/03/18 13:01:12;;;;;;;;;;;21.00;99.90;;;;;;5051872;28;19909;-72
2022/03/18 13:03:49;;;;;;;;;;;21.00;99.90;;;;;;5051629;28;19916;-70
2022/03/18 13:06:20;;;;;;;;;;;21.00;99.90;;;;;;5051466;28;19909;-72
2022/03/18 13:08:47;;;;;;;;;;;21.00;99.90;;;;;;5051969;28;19909;-72
2022/03/18 13:11:14;;;;;;;;;;;21.00;99.90;;;;;;5051734;28;20283;-72
2022/03/18 13:13:48;;;;;;;;;;;21.00;99.90;;;;;;5051968;28;19916;-72
2022/03/18 13:16:15;;;;;;;;;;;20.90;99.90;;;;;;5052236;28;19991;-72
2022/03/18 13:18:50;;;;;;;;;;;21.00;99.90;;;;;;5055647;28;19916;-72
2022/03/18 13:21:16;;;;;;;;;;;20.90;99.90;;;;;;5055496;28;19931;-72
2022/03/18 13:23:44;;;;;;;;;;;20.80;99.90;;;;;;5055541;28;19959;-72
2022/03/18 13:26:14;;;;;;;;;;;20.80;99.90;;;;;;5055219;28;19951;-71
2022/03/18 13:28:41;;;;;;;;;;;20.80;99.90;;;;;;5055498;28;19944;-72
2022/03/18 13:33:55;;;;;;;;;;;20.80;99.90;;;;;;5048466;28;19978;-70
2022/03/18 13:36:30;;;;;;;;;;;20.80;99.90;;;;;;5055067;28;19913;-72
2022/03/18 13:38:57;;;;;;;;;;;20.80;99.90;;;;;;5055084;28;19917;-71
2022/03/18 13:41:25;;;;;;;;;;;20.80;99.90;;;;;;5055254;28;19909;-72
2022/03/18 13:43:57;;;;;;;;;;;20.80;99.90;;;;;;5055347;28;19913;-72
2022/03/18 13:46:27;;;;;;;;;;;20.80;99.90;;;;;;5054143;28;19919;-72
2022/03/18 13:49:08;;;;;;;;;;;20.80;99.90;;;;;;5055049;28;19916;-72
2022/03/18 13:51:36;;;;;;;;;;;20.90;99.90;;;;;;5055101;28;19916;-71
2022/03/18 13:54:07;;;;;;;;;;;20.80;99.90;;;;;;5054764;28;19916;-71
2022/03/18 13:56:35;;;;;;;;;;;20.90;99.90;;;;;;5054933;28;19909;-72
2022/03/18 13:59:16;;;;;;;;;;;20.90;99.90;;;;;;5054024;28;20279;-71
2022/03/18 14:01:59;;;;;;;;;;;20.80;99.90;;;;;;5054403;28;19948;-72
2022/03/18 14:04:26;;;;;;;;;;;20.90;99.90;;;;;;5054494;28;19916;-72
2022/03/18 14:06:54;;;;;;;;;;;20.90;99.90;;;;;;5054770;28;19974;-72
2022/03/18 14:09:21;;;;;;;;;;;20.90;99.90;;;;;;5054622;28;20291;-72
2022/03/18 14:14:43;;;;;;;;;;;20.90;99.90;;;;;;5041478;28;19913;-71
2022/03/18 14:17:10;;;;;;;;;;;20.90;99.90;;;;;;5054231;28;19960;-72
2022/03/18 14:19:47;;;;;;;;;;;20.80;99.90;;;;;;5054448;28;19956;-72
2022/03/18 14:22:29;;;;;;;;;;;20.80;99.90;;;;;;5054255;28;20427;-72
2022/03/18 14:24:56;;;;;;;;;;;20.80;99.90;;;;;;5054456;28;19915;-71
2022/03/18 14:27:23;;;;;;;;;;;20.80;99.90;;;;;;5053828;28;20312;-72
2022/03/18 14:29:50;;;;;;;;;;;20.80;99.90;;;;;;5054175;28;19909;-71
2022/03/18 14:32:16;;;;;;;;;;;20.90;99.90;;;;;;5054077;28;19916;-72
2022/03/18 14:34:45;;;;;;;;;;;20.90;99.90;;;;;;5053517;28;19913;-70
2022/03/18 14:37:12;;;;;;;;;;;20.90;99.90;;;;;;5053707;28;19993;-70
2022/03/18 14:39:38;;;;;;;;;;;20.90;99.90;;;;;;5054007;28;20272;-71
2022/03/18 14:42:05;;;;;;;;;;;20.90;99.90;;;;;;5053696;28;19943;-72
2022/03/18 14:47:35;;;;;;;;;;;21.00;99.90;;;;;;5053948;28;19916;-72